createdAt,value
2019-05-14T00:01:42.898Z,3.40
2019-05-14T00:06:33.572Z,3.50
2019-05-14T00:11:24.910Z,3.40
2019-05-14T00:16:16.396Z,3.40
2019-05-14T00:21:12.402Z,3.20
2019-05-14T00:26:02.434Z,3.10
2019-05-14T00:30:53.135Z,3.10
2019-05-14T00:35:44.254Z,3.00
2019-05-14T00:40:35.511Z,2.90
2019-05-14T00:45:26.955Z,2.80
2019-05-14T00:55:12.290Z,2.80
2019-05-14T01:00:01.739Z,2.70
2019-05-14T01:04:52.540Z,2.70
2019-05-14T01:09:43.818Z,2.60
2019-05-14T01:14:35.267Z,2.50
2019-05-14T01:19:26.581Z,2.40
2019-05-14T01:24:21.902Z,2.30
2019-05-14T01:29:13.987Z,2.20
2019-05-14T01:34:05.458Z,2.20
2019-05-14T01:38:56.722Z,2.10
2019-05-14T01:43:48.249Z,1.70
2019-05-14T01:48:42.151Z,2.00
2019-05-14T01:53:35.588Z,2.00
2019-05-14T01:58:26.989Z,1.90
2019-05-14T02:03:18.410Z,1.80
2019-05-14T02:08:12.446Z,1.80
2019-05-14T02:13:03.477Z,1.70
2019-05-14T02:17:54.835Z,1.60
2019-05-14T02:22:46.297Z,1.50
2019-05-14T02:27:37.620Z,1.50
2019-05-14T02:32:30.525Z,1.50
2019-05-14T02:37:20.459Z,1.30
2019-05-14T02:42:12.001Z,1.40
2019-05-14T02:47:03.347Z,1.30
2019-05-14T02:51:59.336Z,1.20
2019-05-14T02:56:50.232Z,0.90
2019-05-14T03:01:41.502Z,1.10
2019-05-14T03:06:33.432Z,1.00
2019-05-14T03:11:24.849Z,1.10
2019-05-14T03:16:36.871Z,1.10
2019-05-14T03:21:09.967Z,1.10
2019-05-14T03:26:01.443Z,1.00
2019-05-14T03:30:54.157Z,1.00
2019-05-14T03:36:15.148Z,0.90
2019-05-14T03:40:33.111Z,0.90
2019-05-14T03:45:24.601Z,0.90
2019-05-14T03:50:19.781Z,0.90
2019-05-14T03:55:10.444Z,0.90
2019-05-14T04:00:01.052Z,0.90
2019-05-14T04:04:52.498Z,0.90
2019-05-14T04:09:43.896Z,1.00
2019-05-14T04:14:35.295Z,1.10
2019-05-14T04:19:30.272Z,1.20
2019-05-14T04:24:20.723Z,1.20
2019-05-14T04:29:11.688Z,1.40
2019-05-14T04:34:03.180Z,1.50
2019-05-14T04:38:56.083Z,3.30
2019-05-14T04:43:45.905Z,6.70
2019-05-14T04:48:44.659Z,10.00
2019-05-14T04:53:31.680Z,13.80
2019-05-14T04:58:22.418Z,16.90
2019-05-14T05:03:13.567Z,19.70
2019-05-14T05:08:02.923Z,22.10
2019-05-14T05:12:54.218Z,23.90
2019-05-14T05:17:53.748Z,25.20
2019-05-14T05:22:40.485Z,26.90
2019-05-14T05:27:29.342Z,28.00
2019-05-14T05:32:20.233Z,29.10
2019-05-14T05:37:11.268Z,30.10
2019-05-14T05:42:02.536Z,30.60
2019-05-14T05:46:54.030Z,31.20
2019-05-14T05:51:45.317Z,31.70
2019-05-14T05:56:39.323Z,32.30
2019-05-14T06:01:51.454Z,32.50
2019-05-14T06:06:19.988Z,33.00
2019-05-14T06:11:10.931Z,33.30
2019-05-14T06:16:04.551Z,32.00
2019-05-14T06:20:58.787Z,31.50
2019-05-14T06:25:49.889Z,31.70
2019-05-14T06:30:43.302Z,32.00
2019-05-14T06:35:34.666Z,29.00
2019-05-14T06:40:28.830Z,24.20
2019-05-14T06:45:19.328Z,22.00
2019-05-14T06:50:11.145Z,18.00
2019-05-14T06:59:56.225Z,14.90
2019-05-14T07:04:49.077Z,13.80
2019-05-14T07:09:39.152Z,13.00
2019-05-14T07:14:30.431Z,12.40
2019-05-14T07:19:21.847Z,12.60
2019-05-14T07:24:13.220Z,12.50
2019-05-14T07:29:04.622Z,12.70
2019-05-14T07:33:58.818Z,12.30
2019-05-14T07:38:49.874Z,12.00
2019-05-14T07:43:40.025Z,11.90
2019-05-14T07:48:30.167Z,11.90
2019-05-14T07:53:42.805Z,11.90
2019-05-14T07:58:12.948Z,11.80
2019-05-14T08:03:04.442Z,12.00
2019-05-14T08:07:55.746Z,12.10
2019-05-14T08:12:49.131Z,12.10
2019-05-14T08:17:39.443Z,11.90
2019-05-14T08:22:32.213Z,11.80
2019-05-14T08:27:31.676Z,11.80
2019-05-14T08:32:14.926Z,11.60
2019-05-14T08:37:08.803Z,11.60
2019-05-14T08:42:04.868Z,11.50
2019-05-14T08:46:49.335Z,11.60
2019-05-14T08:51:40.643Z,11.90
2019-05-14T08:56:32.033Z,12.00
2019-05-14T09:01:23.401Z,12.20
2019-05-14T09:06:14.799Z,12.20
2019-05-14T09:11:06.132Z,12.30
2019-05-14T09:15:58.948Z,12.40
2019-05-14T09:20:49.552Z,12.40
2019-05-14T09:25:53.717Z,12.50
2019-05-14T09:30:31.819Z,12.80
2019-05-14T09:35:23.335Z,13.10
2019-05-14T09:40:14.671Z,13.50
2019-05-14T09:45:11.704Z,13.20
2019-05-14T09:50:23.814Z,13.30
2019-05-14T09:54:50.272Z,13.30
2019-05-14T09:59:40.269Z,13.60
2019-05-14T10:04:31.583Z,13.40
2019-05-14T10:09:23.002Z,13.10
2019-05-14T10:14:16.639Z,14.00
2019-05-14T10:19:08.107Z,14.00
2019-05-14T10:23:59.421Z,14.10
2019-05-14T10:28:50.835Z,13.80
2019-05-14T10:33:42.200Z,13.90
2019-05-14T10:38:33.690Z,14.40
2019-05-14T10:43:25.013Z,14.30
2019-05-14T10:48:19.099Z,13.90
2019-05-14T10:53:09.717Z,14.00
2019-05-14T10:57:59.273Z,13.60
2019-05-14T11:02:50.554Z,13.30
2019-05-14T11:07:42.441Z,13.30
2019-05-14T11:12:33.366Z,13.10
2019-05-14T11:17:24.797Z,13.50
2019-05-14T11:22:19.002Z,13.40
2019-05-14T11:27:09.850Z,13.40
2019-05-14T11:32:01.210Z,13.40
2019-05-14T11:36:52.666Z,13.60
2019-05-14T11:41:44.014Z,13.70
2019-05-14T11:47:02.702Z,13.40
2019-05-14T11:52:11.941Z,13.50
2019-05-14T11:56:20.101Z,13.60
2019-05-14T12:01:09.912Z,13.40
2019-05-14T12:06:00.951Z,13.30
2019-05-14T12:10:52.433Z,13.00
2019-05-14T12:15:43.734Z,13.00
2019-05-14T12:20:35.201Z,13.20
2019-05-14T12:25:29.592Z,13.40
2019-05-14T12:30:20.366Z,13.10
2019-05-14T12:35:11.577Z,13.10
2019-05-14T12:40:03.031Z,13.70
2019-05-14T12:44:54.367Z,14.20
2019-05-14T12:49:48.703Z,13.80
2019-05-14T12:54:39.493Z,13.40
2019-05-14T12:59:29.155Z,13.20
2019-05-14T13:04:20.741Z,13.30
2019-05-14T13:09:11.369Z,13.40
2019-05-14T13:14:02.733Z,13.80
2019-05-14T13:18:54.181Z,14.20
2019-05-14T13:23:49.126Z,13.70
2019-05-14T13:28:40.860Z,13.70
2019-05-14T13:33:30.631Z,13.90
2019-05-14T13:38:22.111Z,14.00
2019-05-14T13:43:15.139Z,14.20
2019-05-14T13:48:04.994Z,14.50
2019-05-14T13:53:13.381Z,14.20
2019-05-14T13:57:49.333Z,13.80
2019-05-14T14:02:39.074Z,13.50
2019-05-14T14:07:30.452Z,13.60
2019-05-14T14:12:32.530Z,13.80
2019-05-14T14:17:13.174Z,14.00
2019-05-14T14:22:04.617Z,13.70
2019-05-14T14:26:58.724Z,13.40
2019-05-14T14:31:49.175Z,13.20
2019-05-14T14:36:39.404Z,13.20
2019-05-14T14:41:30.144Z,13.30
2019-05-14T14:46:21.504Z,13.80
2019-05-14T14:51:12.888Z,13.80
2019-05-14T14:56:04.265Z,13.30
2019-05-14T15:00:55.720Z,12.90
2019-05-14T15:05:50.467Z,12.90
2019-05-14T15:10:40.152Z,13.20
2019-05-14T15:15:33.016Z,13.50
2019-05-14T15:20:23.678Z,13.50
2019-05-14T15:25:15.401Z,13.40
2019-05-14T15:30:06.968Z,13.60
2019-05-14T15:35:00.027Z,14.10
2019-05-14T15:39:49.764Z,14.20
2019-05-14T15:45:00.124Z,14.10
2019-05-14T15:49:32.507Z,13.80
2019-05-14T15:54:50.831Z,13.20
2019-05-14T15:59:19.560Z,13.10
2019-05-14T16:04:12.203Z,13.80
2019-05-14T16:09:00.365Z,14.40
2019-05-14T16:13:51.842Z,14.60
2019-05-14T16:18:47.494Z,14.00
2019-05-14T16:23:39.310Z,13.60
2019-05-14T16:28:29.434Z,13.40
2019-05-14T16:33:19.914Z,13.30
2019-05-14T16:38:11.474Z,13.40
2019-05-14T16:43:09.794Z,13.40
2019-05-14T16:48:01.178Z,13.00
2019-05-14T16:52:52.548Z,13.10
2019-05-14T16:57:43.927Z,13.30
2019-05-14T17:02:35.422Z,13.40
2019-05-14T17:07:29.360Z,13.30
2019-05-14T17:12:23.544Z,13.30
2019-05-14T17:17:09.924Z,13.30
2019-05-14T17:22:00.971Z,12.90
2019-05-14T17:26:54.512Z,12.50
2019-05-14T17:31:49.608Z,12.30
2019-05-14T17:36:39.737Z,12.20
2019-05-14T17:41:31.068Z,12.10
2019-05-14T17:46:22.366Z,12.00
2019-05-14T17:51:13.831Z,11.90
2019-05-14T17:56:08.818Z,11.80
2019-05-14T18:00:58.877Z,11.70
2019-05-14T18:05:50.176Z,11.70
2019-05-14T18:10:43.822Z,11.70
2019-05-14T18:15:39.771Z,11.60
2019-05-14T18:20:29.674Z,11.50
2019-05-14T18:25:22.613Z,11.40
2019-05-14T18:30:14.038Z,11.20
2019-05-14T18:35:07.689Z,11.10
2019-05-14T18:39:59.285Z,11.00
2019-05-14T18:44:50.558Z,10.90
2019-05-14T18:49:41.916Z,10.70
2019-05-14T18:54:33.309Z,10.60
2019-05-14T18:59:24.731Z,10.50
2019-05-14T19:04:18.396Z,10.40
2019-05-14T19:09:11.281Z,10.20
2019-05-14T19:13:58.888Z,10.10
2019-05-14T19:18:50.388Z,10.00
2019-05-14T19:23:44.785Z,9.90
2019-05-14T19:28:33.199Z,9.90
2019-05-14T19:33:24.523Z,9.80
2019-05-14T19:38:18.540Z,9.70
2019-05-14T19:43:09.968Z,9.60
2019-05-14T19:47:59.132Z,9.60
2019-05-14T19:52:50.183Z,9.60
2019-05-14T19:57:42.151Z,9.60
2019-05-14T20:02:33.033Z,9.70
2019-05-14T20:07:24.438Z,9.70
2019-05-14T20:12:18.416Z,9.80
2019-05-14T20:17:09.595Z,9.80
2019-05-14T20:21:59.374Z,9.70
2019-05-14T20:27:12.574Z,9.70
2019-05-14T20:31:41.410Z,9.60
2019-05-14T20:36:32.785Z,9.60
2019-05-14T20:41:24.189Z,9.50
2019-05-14T20:46:19.088Z,9.50
2019-05-14T20:51:09.580Z,9.40
2019-05-14T20:55:59.447Z,9.30
2019-05-14T21:00:49.765Z,9.20
2019-05-14T21:05:43.113Z,9.00
2019-05-14T21:10:32.517Z,8.80
2019-05-14T21:15:23.882Z,8.70
2019-05-14T21:20:15.294Z,8.50
2019-05-14T21:25:13.114Z,8.40
2019-05-14T21:29:59.064Z,8.40
2019-05-14T21:34:49.829Z,8.40
2019-05-14T21:39:41.572Z,8.30
2019-05-14T21:44:32.169Z,8.30
2019-05-14T21:49:23.604Z,8.30
2019-05-14T21:54:15.065Z,8.20
2019-05-14T21:59:06.464Z,8.30
2019-05-14T22:03:59.951Z,8.30
2019-05-14T22:08:49.514Z,8.20
2019-05-14T22:13:40.608Z,8.30
2019-05-14T22:18:34.219Z,8.30
2019-05-14T22:23:25.594Z,8.30
2019-05-14T22:28:19.522Z,8.30
2019-05-14T22:33:09.281Z,8.20
2019-05-14T22:38:00.305Z,8.10
2019-05-14T22:42:51.234Z,8.00
2019-05-14T22:52:34.044Z,8.00
2019-05-14T22:57:25.444Z,8.00
2019-05-14T23:02:19.897Z,7.90
2019-05-14T23:07:08.806Z,7.70
2019-05-14T23:11:59.594Z,7.60
2019-05-14T23:16:50.950Z,7.50
2019-05-14T23:21:42.332Z,7.40
2019-05-14T23:26:33.744Z,7.20
2019-05-14T23:31:25.173Z,7.00
2019-05-14T23:36:18.827Z,6.80
2019-05-14T23:41:09.392Z,6.70
2019-05-14T23:45:59.317Z,6.50
2019-05-14T23:50:50.724Z,6.50
2019-05-14T23:55:42.108Z,6.50
